Time;durP1;ratioP1;P1;durP2;ratioP2;P2;SDS_P1;SDS_P2;PMS_P1;PMS_P2;Temp;Humidity;BMP_temperature;BMP_pressure;BME280_temperature;BME280_humidity;BME280_pressure;Samples;Min_cycle;Max_cycle;Signal;HPM_P1;HPM_P2
2023/09/08 00:00:35;;;;;;;7.07;6.15;;;;;;;;;;5027880;28;20585;-75
2023/09/08 00:03:02;;;;;;;7.20;6.60;;;;;;;;;;5041826;28;20557;-74
2023/09/08 00:05:30;;;;;;;6.85;6.13;;;;;;;;;;5013914;28;20206;-74
2023/09/08 00:07:57;;;;;;;7.18;6.53;;;;;;;;;;5018730;28;20217;-74
2023/09/08 00:10:24;;;;;;;6.95;6.22;;;;;;;;;;5038236;28;20603;-74
2023/09/08 00:16:14;;;;;;;6.70;6.00;;;;;;;;;;5025619;28;22928;-71
2023/09/08 00:18:42;;;;;;;9.45;6.55;;;;;;;;;;5018051;28;20238;-74
2023/09/08 00:21:09;;;;;;;18.50;6.38;;;;;;;;;;5034946;28;20227;-75
2023/09/08 00:23:36;;;;;;;6.53;5.82;;;;;;;;;;5038277;28;20264;-74
2023/09/08 00:26:03;;;;;;;6.28;5.68;;;;;;;;;;5039020;28;20213;-74
2023/09/08 00:28:31;;;;;;;6.88;6.28;;;;;;;;;;5043882;28;20580;-72
2023/09/08 00:31:02;;;;;;;6.63;5.88;;;;;;;;;;5037689;28;20233;-73
2023/09/08 00:33:29;;;;;;;6.45;5.85;;;;;;;;;;5038623;28;20209;-74
2023/09/08 00:35:57;;;;;;;7.30;6.60;;;;;;;;;;5037526;28;20249;-73
2023/09/08 00:38:25;;;;;;;6.72;6.03;;;;;;;;;;5019381;28;20202;-76
2023/09/08 00:40:52;;;;;;;6.50;5.90;;;;;;;;;;5043879;28;20236;-74
2023/09/08 00:43:19;;;;;;;9.10;6.63;;;;;;;;;;5037442;28;20703;-73
2023/09/08 00:45:47;;;;;;;6.85;6.15;;;;;;;;;;5027800;28;20210;-74
2023/09/08 00:48:14;;;;;;;8.15;6.10;;;;;;;;;;5037716;28;20203;-74
2023/09/08 00:50:42;;;;;;;7.22;6.53;;;;;;;;;;5032157;28;20237;-76
2023/09/08 00:53:10;;;;;;;7.43;6.70;;;;;;;;;;5038156;28;20207;-74
2023/09/08 00:55:39;;;;;;;7.63;6.30;;;;;;;;;;5015732;28;20256;-75
2023/09/08 00:58:06;;;;;;;6.43;5.80;;;;;;;;;;5033519;28;20553;-74
2023/09/08 01:00:34;;;;;;;10.77;6.72;;;;;;;;;;5016434;28;20222;-74
2023/09/08 01:03:02;;;;;;;6.72;6.03;;;;;;;;;;5032834;28;20199;-74
2023/09/08 01:05:30;;;;;;;6.55;5.95;;;;;;;;;;5043391;28;20214;-75
2023/09/08 01:07:57;;;;;;;6.93;6.28;;;;;;;;;;5030169;28;20637;-74
2023/09/08 01:10:25;;;;;;;6.60;6.00;;;;;;;;;;5021367;28;20265;-74
2023/09/08 01:12:52;;;;;;;7.97;6.60;;;;;;;;;;5031447;28;20632;-74
2023/09/08 01:15:19;;;;;;;7.05;6.35;;;;;;;;;;5029197;28;20604;-73
2023/09/08 01:17:47;;;;;;;7.03;6.43;;;;;;;;;;5036642;28;20213;-74
2023/09/08 01:20:24;;;;;;;7.38;6.68;;;;;;;;;;5041423;28;20202;-74
2023/09/08 01:23:10;;;;;;;7.03;6.32;;;;;;;;;;5034274;28;20290;-74
2023/09/08 01:25:41;;;;;;;7.15;6.45;;;;;;;;;;5034740;28;20198;-72
2023/09/08 01:28:08;;;;;;;9.65;6.63;;;;;;;;;;5031161;28;20199;-74
2023/09/08 01:30:36;;;;;;;7.97;6.50;;;;;;;;;;5017186;28;20219;-72
2023/09/08 01:33:04;;;;;;;7.03;6.32;;;;;;;;;;5039819;28;20203;-74
2023/09/08 01:35:32;;;;;;;7.50;6.85;;;;;;;;;;5042250;28;20209;-73
2023/09/08 01:37:59;;;;;;;10.70;9.07;;;;;;;;;;5031021;28;20282;-75
2023/09/08 01:40:26;;;;;;;7.70;6.90;;;;;;;;;;5031308;28;20597;-73
2023/09/08 01:42:53;;;;;;;7.03;6.35;;;;;;;;;;5029271;28;20210;-74
2023/09/08 01:45:21;;;;;;;7.22;6.07;;;;;;;;;;5034583;28;20225;-73
2023/09/08 01:47:48;;;;;;;9.40;8.13;;;;;;;;;;5016611;28;21252;-72
2023/09/08 01:50:21;;;;;;;7.53;6.75;;;;;;;;;;5045154;28;20198;-75
2023/09/08 01:52:49;;;;;;;7.60;6.72;;;;;;;;;;5036099;28;20260;-74
2023/09/08 01:55:16;;;;;;;7.47;6.55;;;;;;;;;;5043177;28;20210;-75
2023/09/08 01:57:44;;;;;;;8.70;7.80;;;;;;;;;;5048241;28;20566;-76
2023/09/08 02:00:11;;;;;;;7.13;6.43;;;;;;;;;;5036342;28;20207;-72
2023/09/08 02:02:39;;;;;;;6.63;5.90;;;;;;;;;;5034950;28;20695;-74
2023/09/08 02:05:06;;;;;;;8.45;6.40;;;;;;;;;;5037792;28;20253;-74
2023/09/08 02:07:34;;;;;;;7.50;6.80;;;;;;;;;;5040024;28;20220;-74
2023/09/08 02:10:01;;;;;;;8.50;6.63;;;;;;;;;;5034271;28;20195;-73
2023/09/08 02:12:28;;;;;;;7.20;6.47;;;;;;;;;;5043951;28;20440;-75
2023/09/08 02:14:56;;;;;;;7.55;6.85;;;;;;;;;;5045879;28;20214;-76
2023/09/08 02:17:23;;;;;;;7.40;6.60;;;;;;;;;;5039603;28;20206;-76
2023/09/08 02:19:50;;;;;;;7.10;6.40;;;;;;;;;;5048982;28;20202;-75
2023/09/08 02:22:18;;;;;;;6.60;6.00;;;;;;;;;;5048061;28;20230;-73
2023/09/08 02:24:45;;;;;;;6.68;5.97;;;;;;;;;;5045708;28;20252;-75
2023/09/08 02:27:13;;;;;;;8.57;7.03;;;;;;;;;;5049602;28;20198;-74
2023/09/08 02:29:40;;;;;;;8.23;7.40;;;;;;;;;;5045022;28;20202;-74
2023/09/08 02:32:07;;;;;;;8.48;7.20;;;;;;;;;;5037017;28;20615;-72
2023/09/08 02:34:39;;;;;;;7.45;6.53;;;;;;;;;;5037719;28;20638;-75
2023/09/08 02:37:06;;;;;;;7.10;6.40;;;;;;;;;;5035579;28;20199;-74
2023/09/08 02:39:33;;;;;;;8.30;6.68;;;;;;;;;;5033694;28;20641;-73
2023/09/08 02:42:01;;;;;;;9.95;8.60;;;;;;;;;;5032837;28;20253;-76
2023/09/08 02:44:29;;;;;;;7.93;7.13;;;;;;;;;;5045985;28;20262;-74
2023/09/08 02:46:56;;;;;;;7.70;6.90;;;;;;;;;;5043737;28;20206;-75
2023/09/08 02:49:23;;;;;;;13.03;10.73;;;;;;;;;;5042012;28;20664;-74
2023/09/08 02:51:51;;;;;;;12.17;10.03;;;;;;;;;;5042236;28;20222;-75
2023/09/08 02:54:18;;;;;;;14.70;11.77;;;;;;;;;;5047638;28;20719;-72
2023/09/08 02:56:45;;;;;;;17.48;12.15;;;;;;;;;;5034560;23;20325;-77
2023/09/08 02:59:12;;;;;;;14.90;11.57;;;;;;;;;;5049935;28;20202;-76
2023/09/08 03:01:40;;;;;;;14.43;11.37;;;;;;;;;;5063869;28;20232;-76
2023/09/08 03:04:08;;;;;;;18.83;12.97;;;;;;;;;;5064574;28;20656;-77
2023/09/08 03:06:35;;;;;;;13.13;10.63;;;;;;;;;;5068453;28;20198;-76
2023/09/08 03:09:02;;;;;;;9.43;8.38;;;;;;;;;;5070584;28;20206;-76
2023/09/08 03:11:30;;;;;;;8.87;7.97;;;;;;;;;;5043523;28;20267;-75
2023/09/08 03:13:57;;;;;;;9.77;7.95;;;;;;;;;;5066363;28;20578;-76
2023/09/08 03:16:24;;;;;;;11.50;8.07;;;;;;;;;;5066983;28;20209;-76
2023/09/08 03:18:52;;;;;;;8.40;7.60;;;;;;;;;;5063606;28;20202;-75
2023/09/08 03:21:20;;;;;;;7.93;7.13;;;;;;;;;;5064637;28;20256;-77
2023/09/08 03:23:47;;;;;;;9.02;7.63;;;;;;;;;;5044871;28;20205;-76
2023/09/08 03:26:15;;;;;;;8.37;7.50;;;;;;;;;;5063360;28;20660;-75
2023/09/08 03:28:43;;;;;;;9.43;7.67;;;;;;;;;;5053984;28;20206;-76
2023/09/08 03:31:10;;;;;;;8.37;6.90;;;;;;;;;;5061729;28;20720;-77
2023/09/08 03:33:38;;;;;;;9.93;7.27;;;;;;;;;;5050361;28;20220;-74
2023/09/08 03:36:06;;;;;;;7.00;6.40;;;;;;;;;;5040993;28;20206;-75
2023/09/08 03:38:33;;;;;;;8.77;7.40;;;;;;;;;;5060229;28;20251;-75
2023/09/08 03:41:01;;;;;;;8.88;7.43;;;;;;;;;;5052519;28;20226;-75
2023/09/08 03:43:28;;;;;;;10.07;7.10;;;;;;;;;;5034891;28;20202;-74
2023/09/08 03:45:56;;;;;;;8.63;7.10;;;;;;;;;;5056532;28;20203;-76
2023/09/08 03:48:24;;;;;;;7.55;6.85;;;;;;;;;;5064182;28;20237;-76
2023/09/08 03:50:51;;;;;;;8.30;7.50;;;;;;;;;;5061936;28;20228;-76
2023/09/08 03:53:18;;;;;;;7.53;6.83;;;;;;;;;;5045594;28;20262;-76
2023/09/08 03:55:46;;;;;;;7.50;6.63;;;;;;;;;;5052920;28;20634;-74
2023/09/08 03:58:13;;;;;;;7.73;6.53;;;;;;;;;;5052664;28;20210;-75
2023/09/08 04:00:40;;;;;;;8.53;7.20;;;;;;;;;;5034241;28;20776;-74
2023/09/08 04:03:08;;;;;;;7.70;6.77;;;;;;;;;;5036770;28;20226;-75
2023/09/08 04:05:36;;;;;;;8.23;7.00;;;;;;;;;;5051890;28;20624;-76
2023/09/08 04:08:03;;;;;;;7.77;6.97;;;;;;;;;;5051182;28;20291;-74
2023/09/08 04:10:30;;;;;;;8.80;7.10;;;;;;;;;;5055864;28;20255;-76
2023/09/08 04:12:58;;;;;;;8.13;7.13;;;;;;;;;;5034753;28;20206;-75
2023/09/08 04:15:25;;;;;;;8.03;7.17;;;;;;;;;;5050826;28;20209;-76
2023/09/08 04:17:52;;;;;;;7.63;6.93;;;;;;;;;;5049670;28;20573;-76
2023/09/08 04:20:20;;;;;;;8.50;7.70;;;;;;;;;;5051081;28;20210;-77
2023/09/08 04:22:47;;;;;;;9.77;7.70;;;;;;;;;;5035395;28;20233;-77
2023/09/08 04:25:15;;;;;;;7.33;6.63;;;;;;;;;;5051755;28;20206;-75
2023/09/08 04:27:42;;;;;;;10.00;7.43;;;;;;;;;;5035377;28;20229;-76
2023/09/08 04:30:10;;;;;;;10.80;7.93;;;;;;;;;;5033484;28;20668;-76
2023/09/08 04:32:37;;;;;;;8.75;7.85;;;;;;;;;;5034967;28;20229;-76
2023/09/08 04:35:05;;;;;;;8.77;7.87;;;;;;;;;;5051095;28;20388;-76
2023/09/08 04:37:34;;;;;;;11.27;8.03;;;;;;;;;;5041566;28;20201;-76
2023/09/08 04:40:02;;;;;;;10.17;7.90;;;;;;;;;;5055107;28;20205;-76
2023/09/08 04:42:29;;;;;;;8.57;7.67;;;;;;;;;;5037438;28;20229;-75
2023/09/08 04:44:56;;;;;;;11.73;8.03;;;;;;;;;;5049542;28;20205;-75
2023/09/08 04:47:24;;;;;;;9.00;7.30;;;;;;;;;;5050015;28;20541;-75
2023/09/08 04:49:51;;;;;;;9.07;8.17;;;;;;;;;;5059040;28;20210;-75
2023/09/08 04:52:18;;;;;;;8.13;7.00;;;;;;;;;;5033721;28;20230;-76
2023/09/08 04:54:45;;;;;;;8.10;7.07;;;;;;;;;;5065879;28;20233;-74
2023/09/08 04:57:13;;;;;;;8.27;7.10;;;;;;;;;;5049956;28;20659;-74
2023/09/08 04:59:49;;;;;;;7.40;6.70;;;;;;;;;;5056802;28;20201;-75
2023/09/08 05:02:18;;;;;;;8.30;7.47;;;;;;;;;;5053868;28;20678;-76
2023/09/08 05:04:46;;;;;;;8.03;7.23;;;;;;;;;;5052881;28;20259;-74
2023/09/08 05:07:13;;;;;;;8.23;7.43;;;;;;;;;;5050686;28;20205;-75
2023/09/08 05:09:41;;;;;;;9.77;7.07;;;;;;;;;;5033761;28;20667;-74
2023/09/08 05:12:08;;;;;;;7.67;6.97;;;;;;;;;;5050626;28;20233;-75
2023/09/08 05:14:35;;;;;;;10.27;7.47;;;;;;;;;;5050962;28;20206;-74
2023/09/08 05:17:03;;;;;;;12.37;7.50;;;;;;;;;;5031855;28;20213;-76
2023/09/08 05:19:32;;;;;;;8.90;7.33;;;;;;;;;;5053041;28;21327;-76
2023/09/08 05:21:59;;;;;;;9.90;7.27;;;;;;;;;;5041488;28;20634;-76
2023/09/08 05:24:26;;;;;;;7.67;6.97;;;;;;;;;;5055484;28;20210;-76
2023/09/08 05:26:54;;;;;;;10.57;7.53;;;;;;;;;;5058809;28;20202;-74
2023/09/08 05:29:21;;;;;;;9.90;7.80;;;;;;;;;;5064482;28;20205;-75
2023/09/08 05:31:49;;;;;;;8.17;7.30;;;;;;;;;;5040444;28;20237;-75
2023/09/08 05:34:16;;;;;;;9.77;7.63;;;;;;;;;;5062839;28;20224;-76
2023/09/08 05:36:44;;;;;;;8.67;6.90;;;;;;;;;;5053362;28;20210;-76
2023/09/08 05:39:13;;;;;;;8.53;7.73;;;;;;;;;;5069140;28;20659;-76
2023/09/08 05:41:40;;;;;;;9.10;8.20;;;;;;;;;;5035948;28;20222;-75
2023/09/08 05:44:08;;;;;;;10.90;8.83;;;;;;;;;;5054553;28;20619;-75
2023/09/08 05:46:35;;;;;;;9.13;8.23;;;;;;;;;;5042176;28;20210;-76
2023/09/08 05:49:02;;;;;;;9.60;8.15;;;;;;;;;;5052683;28;20194;-76
2023/09/08 05:51:30;;;;;;;12.60;8.50;;;;;;;;;;5056277;28;20249;-75
2023/09/08 05:53:57;;;;;;;12.80;8.83;;;;;;;;;;5066345;28;20201;-76
2023/09/08 05:56:31;;;;;;;13.43;8.30;;;;;;;;;;5064070;28;20249;-76
2023/09/08 05:58:58;;;;;;;10.97;9.53;;;;;;;;;;5069662;28;20205;-76
2023/09/08 06:01:26;;;;;;;10.60;8.67;;;;;;;;;;5068947;28;20224;-75
2023/09/08 06:03:54;;;;;;;16.90;9.88;;;;;;;;;;5049166;28;20280;-76
2023/09/08 06:06:22;;;;;;;16.67;9.02;;;;;;;;;;5067949;28;20354;-77
2023/09/08 06:08:49;;;;;;;14.40;9.95;;;;;;;;;;5064057;28;20205;-76
2023/09/08 06:11:16;;;;;;;11.90;9.83;;;;;;;;;;5070365;28;20271;-76
2023/09/08 06:13:44;;;;;;;19.17;11.03;;;;;;;;;;5070273;28;20209;-76
2023/09/08 06:16:11;;;;;;;15.32;10.43;;;;;;;;;;5064452;28;20209;-76
2023/09/08 06:18:43;;;;;;;16.33;11.98;;;;;;;;;;5063561;28;20209;-75
2023/09/08 06:21:11;;;;;;;14.93;10.80;;;;;;;;;;5052316;28;20221;-75
2023/09/08 06:23:38;;;;;;;12.10;10.85;;;;;;;;;;5069374;28;20221;-75
2023/09/08 06:26:05;;;;;;;13.68;10.00;;;;;;;;;;5048875;28;20581;-75
2023/09/08 06:28:32;;;;;;;12.23;9.13;;;;;;;;;;5060944;28;20195;-77
2023/09/08 06:31:00;;;;;;;11.18;9.57;;;;;;;;;;5060310;28;20217;-77
2023/09/08 06:33:28;;;;;;;11.00;8.88;;;;;;;;;;5059478;28;20206;-78
2023/09/08 06:35:56;;;;;;;9.68;8.75;;;;;;;;;;5051760;28;20289;-77
2023/09/08 06:38:23;;;;;;;9.68;8.77;;;;;;;;;;5066217;28;20205;-76
2023/09/08 06:40:52;;;;;;;9.43;8.43;;;;;;;;;;5058124;28;20232;-76
2023/09/08 06:43:20;;;;;;;11.00;8.98;;;;;;;;;;5062337;28;20221;-76
2023/09/08 06:45:48;;;;;;;10.57;8.75;;;;;;;;;;5059963;28;20616;-74
2023/09/08 06:48:16;;;;;;;8.68;7.63;;;;;;;;;;5041615;28;20198;-77
2023/09/08 06:50:43;;;;;;;11.23;8.27;;;;;;;;;;5069750;28;20670;-77
2023/09/08 06:53:12;;;;;;;8.57;7.78;;;;;;;;;;5038215;28;20198;-76
2023/09/08 06:55:39;;;;;;;8.85;8.05;;;;;;;;;;5052324;28;20206;-76
2023/09/08 06:58:11;;;;;;;8.70;7.55;;;;;;;;;;5052155;28;20194;-76
2023/09/08 07:00:39;;;;;;;8.85;7.70;;;;;;;;;;5052106;28;20226;-76
2023/09/08 07:03:07;;;;;;;8.73;7.82;;;;;;;;;;5059924;28;20268;-76
2023/09/08 07:05:36;;;;;;;10.35;8.10;;;;;;;;;;5040487;28;20205;-77
2023/09/08 07:08:03;;;;;;;8.48;7.63;;;;;;;;;;5056986;28;20597;-77
2023/09/08 07:10:30;;;;;;;9.93;8.00;;;;;;;;;;5051276;28;20201;-75
2023/09/08 07:12:57;;;;;;;9.32;8.13;;;;;;;;;;5052522;28;20241;-75
2023/09/08 07:15:25;;;;;;;8.73;7.82;;;;;;;;;;5064344;28;20206;-76
2023/09/08 07:17:52;;;;;;;9.20;8.10;;;;;;;;;;5057032;28;20423;-76
2023/09/08 07:20:20;;;;;;;9.60;7.70;;;;;;;;;;5033176;28;20256;-76
2023/09/08 07:22:47;;;;;;;8.60;7.40;;;;;;;;;;5033351;28;20230;-75
2023/09/08 07:25:14;;;;;;;9.90;8.55;;;;;;;;;;5059047;28;20209;-77
2023/09/08 07:27:41;;;;;;;10.68;8.20;;;;;;;;;;5057208;28;20699;-76
2023/09/08 07:30:09;;;;;;;9.57;7.68;;;;;;;;;;5065254;28;20280;-75
2023/09/08 07:32:36;;;;;;;8.68;7.47;;;;;;;;;;5069679;28;20221;-74
2023/09/08 07:35:04;;;;;;;7.95;7.25;;;;;;;;;;5056716;28;20648;-77
2023/09/08 07:37:31;;;;;;;9.02;8.13;;;;;;;;;;5057806;28;20210;-76
2023/09/08 07:39:58;;;;;;;9.30;7.78;;;;;;;;;;5058011;28;20206;-77
2023/09/08 07:42:27;;;;;;;8.90;7.43;;;;;;;;;;5066398;28;20229;-75
2023/09/08 07:44:54;;;;;;;8.65;7.75;;;;;;;;;;5069016;28;20220;-77
2023/09/08 07:47:21;;;;;;;10.02;8.02;;;;;;;;;;5060711;28;20255;-77
2023/09/08 07:49:48;;;;;;;8.85;7.03;;;;;;;;;;5052324;28;20256;-76
2023/09/08 07:52:16;;;;;;;8.20;7.40;;;;;;;;;;5049694;28;20226;-77
2023/09/08 07:54:43;;;;;;;7.78;7.00;;;;;;;;;;5053121;28;20206;-76
2023/09/08 07:57:10;;;;;;;8.90;8.02;;;;;;;;;;5050557;28;20590;-75
2023/09/08 07:59:37;;;;;;;7.43;6.72;;;;;;;;;;5033859;28;20218;-77
2023/09/08 08:02:05;;;;;;;7.72;6.57;;;;;;;;;;5055906;28;20224;-76
2023/09/08 08:04:32;;;;;;;8.50;7.22;;;;;;;;;;5057194;28;20202;-77
2023/09/08 08:06:59;;;;;;;9.05;7.60;;;;;;;;;;5063626;28;20197;-76
2023/09/08 08:09:27;;;;;;;8.63;6.80;;;;;;;;;;5050835;28;20556;-76
2023/09/08 08:11:54;;;;;;;9.30;7.15;;;;;;;;;;5047495;28;20225;-77
2023/09/08 08:14:21;;;;;;;9.52;7.55;;;;;;;;;;5040153;28;20217;-77
2023/09/08 08:16:49;;;;;;;6.95;6.28;;;;;;;;;;5052504;28;20567;-78
2023/09/08 08:19:16;;;;;;;7.63;6.90;;;;;;;;;;5032271;28;20883;-78
2023/09/08 08:21:43;;;;;;;7.72;6.95;;;;;;;;;;5051586;28;20228;-76
2023/09/08 08:24:10;;;;;;;8.63;7.25;;;;;;;;;;5069129;28;20312;-76
2023/09/08 08:26:38;;;;;;;8.27;7.47;;;;;;;;;;5058778;28;20581;-75
2023/09/08 08:29:05;;;;;;;10.05;7.10;;;;;;;;;;5067388;28;20200;-76
2023/09/08 08:31:33;;;;;;;8.07;7.28;;;;;;;;;;5052404;28;20275;-77
2023/09/08 08:34:00;;;;;;;7.93;7.13;;;;;;;;;;5068902;28;20968;-75
2023/09/08 08:36:27;;;;;;;8.18;7.38;;;;;;;;;;5041628;28;20209;-76
2023/09/08 08:38:55;;;;;;;8.43;6.78;;;;;;;;;;5032202;28;20217;-77
2023/09/08 08:41:22;;;;;;;7.55;6.72;;;;;;;;;;5044259;28;20596;-77
2023/09/08 08:43:51;;;;;;;7.65;6.95;;;;;;;;;;5057030;28;20222;-76
2023/09/08 08:46:18;;;;;;;8.52;7.55;;;;;;;;;;5063983;28;20224;-75
2023/09/08 08:48:46;;;;;;;8.52;7.72;;;;;;;;;;5064593;28;20199;-76
2023/09/08 08:51:14;;;;;;;7.82;6.88;;;;;;;;;;5055089;28;20326;-78
2023/09/08 08:53:41;;;;;;;8.00;7.15;;;;;;;;;;5067519;28;20581;-78
2023/09/08 08:56:10;;;;;;;8.73;7.93;;;;;;;;;;5049785;23;20242;-78
2023/09/08 08:58:40;;;;;;;7.20;6.60;;;;;;;;;;5029743;28;20203;-77
2023/09/08 09:01:07;;;;;;;8.90;8.10;;;;;;;;;;5031231;28;20260;-75
2023/09/08 09:03:37;;;;;;;7.93;7.22;;;;;;;;;;5027334;28;20227;-76
2023/09/08 09:06:05;;;;;;;8.52;7.60;;;;;;;;;;5030939;28;20287;-75
2023/09/08 09:08:33;;;;;;;7.65;6.78;;;;;;;;;;5031393;28;20211;-77
2023/09/08 09:11:01;;;;;;;8.30;7.50;;;;;;;;;;5031527;28;20218;-76
2023/09/08 09:13:28;;;;;;;9.38;7.38;;;;;;;;;;5030490;28;20724;-75
2023/09/08 09:16:00;;;;;;;7.35;6.65;;;;;;;;;;5029476;28;20198;-76
2023/09/08 09:18:29;;;;;;;7.43;6.53;;;;;;;;;;5031171;28;20207;-78
2023/09/08 09:20:59;;;;;;;7.30;6.53;;;;;;;;;;5031537;28;20206;-78
2023/09/08 09:23:27;;;;;;;9.32;6.57;;;;;;;;;;5030267;28;20230;-78
2023/09/08 09:25:55;;;;;;;7.55;6.68;;;;;;;;;;5031051;28;20207;-78
2023/09/08 09:28:22;;;;;;;7.40;6.70;;;;;;;;;;5030518;28;20203;-76
2023/09/08 09:30:51;;;;;;;7.30;6.70;;;;;;;;;;5026568;28;20203;-77
2023/09/08 09:33:19;;;;;;;9.10;6.40;;;;;;;;;;5029701;28;20231;-78
2023/09/08 09:35:47;;;;;;;6.68;6.07;;;;;;;;;;5031050;28;20221;-77
2023/09/08 09:38:15;;;;;;;6.97;6.38;;;;;;;;;;5024582;28;20211;-77
2023/09/08 09:40:42;;;;;;;8.13;6.70;;;;;;;;;;5028970;28;20343;-78
2023/09/08 09:43:11;;;;;;;7.10;6.40;;;;;;;;;;5030746;28;20276;-78
2023/09/08 09:45:39;;;;;;;7.53;6.70;;;;;;;;;;5030375;28;20206;-78
2023/09/08 09:48:08;;;;;;;7.68;6.88;;;;;;;;;;5030826;28;20203;-76
2023/09/08 09:50:36;;;;;;;7.90;6.90;;;;;;;;;;5022068;28;20285;-76
2023/09/08 09:53:08;;;;;;;9.77;6.63;;;;;;;;;;5031245;28;20227;-77
2023/09/08 09:55:37;;;;;;;7.38;6.60;;;;;;;;;;5030743;28;20225;-78
2023/09/08 09:58:05;;;;;;;7.60;6.90;;;;;;;;;;5034333;28;20244;-77
2023/09/08 10:00:33;;;;;;;8.13;6.22;;;;;;;;;;5030296;28;20202;-77
2023/09/08 10:03:00;;;;;;;8.00;5.82;;;;;;;;;;5019598;28;20692;-77
2023/09/08 10:05:28;;;;;;;6.40;5.90;;;;;;;;;;5027051;28;20781;-77
2023/09/08 10:07:56;;;;;;;6.07;5.57;;;;;;;;;;5025465;28;20260;-78
2023/09/08 10:10:24;;;;;;;8.32;6.35;;;;;;;;;;5034351;28;20207;-78
2023/09/08 10:12:55;;;;;;;6.53;6.03;;;;;;;;;;5034101;28;20230;-76
2023/09/08 10:15:23;;;;;;;7.15;6.55;;;;;;;;;;5035068;28;20269;-76
2023/09/08 10:17:57;;;;;;;6.47;5.88;;;;;;;;;;5034176;28;20222;-78
2023/09/08 10:20:25;;;;;;;6.28;5.78;;;;;;;;;;5036105;28;20198;-76
2023/09/08 10:23:01;;;;;;;6.32;5.72;;;;;;;;;;5033594;28;20218;-77
2023/09/08 10:25:31;;;;;;;6.43;5.82;;;;;;;;;;5033797;28;20555;-76
2023/09/08 10:27:59;;;;;;;6.13;5.53;;;;;;;;;;5027973;28;20298;-78
2023/09/08 10:30:26;;;;;;;6.40;5.75;;;;;;;;;;5025841;28;20208;-78
2023/09/08 10:32:54;;;;;;;5.97;5.38;;;;;;;;;;5028588;28;20250;-79
2023/09/08 10:35:21;;;;;;;6.28;5.47;;;;;;;;;;5034933;28;20199;-78
2023/09/08 10:37:49;;;;;;;6.07;5.50;;;;;;;;;;5034947;28;20203;-80
2023/09/08 10:40:24;;;;;;;5.45;5.00;;;;;;;;;;5031926;28;20203;-77
2023/09/08 10:43:07;;;;;;;6.63;6.10;;;;;;;;;;5033921;28;20229;-77
2023/09/08 10:45:35;;;;;;;6.10;5.50;;;;;;;;;;5032986;28;20207;-78
2023/09/08 10:48:02;;;;;;;6.60;5.35;;;;;;;;;;5034736;28;20286;-77
2023/09/08 10:50:34;;;;;;;7.20;5.43;;;;;;;;;;5033959;28;20199;-77
2023/09/08 10:53:05;;;;;;;5.65;5.13;;;;;;;;;;5027585;28;20219;-77
2023/09/08 10:55:48;;;;;;;8.18;4.97;;;;;;;;;;5039932;28;20588;-78
2023/09/08 10:58:40;;;;;;;6.75;5.57;;;;;;;;;;5033929;28;20601;-78
2023/09/08 11:01:08;;;;;;;6.20;5.60;;;;;;;;;;5033845;28;20918;-78
2023/09/08 11:03:38;;;;;;;5.53;5.03;;;;;;;;;;5026731;28;20659;-77
2023/09/08 11:06:06;;;;;;;7.00;5.53;;;;;;;;;;5032613;28;20223;-77
2023/09/08 11:08:35;;;;;;;5.90;5.40;;;;;;;;;;5027369;28;20207;-78
2023/09/08 11:11:02;;;;;;;5.05;4.65;;;;;;;;;;5035275;28;20646;-77
2023/09/08 11:13:30;;;;;;;5.45;4.97;;;;;;;;;;5032188;28;20250;-77
2023/09/08 11:15:57;;;;;;;4.78;4.47;;;;;;;;;;5025181;28;20269;-76
2023/09/08 11:18:27;;;;;;;5.47;4.93;;;;;;;;;;5033407;28;20211;-77
2023/09/08 11:20:55;;;;;;;5.78;5.10;;;;;;;;;;5033163;28;20207;-76
2023/09/08 11:23:23;;;;;;;5.75;5.10;;;;;;;;;;5033887;28;20665;-78
2023/09/08 11:25:53;;;;;;;5.63;5.13;;;;;;;;;;5031503;28;20199;-79
2023/09/08 11:28:24;;;;;;;5.57;5.03;;;;;;;;;;5031935;28;20322;-76
2023/09/08 11:30:51;;;;;;;5.55;5.05;;;;;;;;;;5024120;28;20249;-77
2023/09/08 11:33:24;;;;;;;5.25;4.75;;;;;;;;;;5034282;28;20219;-77
2023/09/08 11:35:55;;;;;;;5.80;5.03;;;;;;;;;;5032674;28;20556;-75
2023/09/08 11:38:30;;;;;;;5.45;4.90;;;;;;;;;;5032376;28;20215;-76
2023/09/08 11:40:58;;;;;;;5.50;5.03;;;;;;;;;;5032979;28;20558;-78
2023/09/08 11:43:27;;;;;;;5.93;5.07;;;;;;;;;;5032661;28;20308;-78
2023/09/08 11:45:54;;;;;;;5.28;4.78;;;;;;;;;;5032688;28;20210;-77
2023/09/08 11:48:22;;;;;;;6.15;4.90;;;;;;;;;;5032538;28;20206;-78
2023/09/08 11:50:49;;;;;;;5.38;4.88;;;;;;;;;;5033754;28;20264;-78
2023/09/08 11:53:20;;;;;;;5.47;4.97;;;;;;;;;;5032665;28;20226;-76
2023/09/08 11:55:48;;;;;;;5.57;5.07;;;;;;;;;;5032814;28;20219;-77
2023/09/08 11:58:15;;;;;;;5.30;4.90;;;;;;;;;;5032632;28;20214;-76
2023/09/08 12:00:43;;;;;;;5.35;4.95;;;;;;;;;;5033116;28;20215;-79
2023/09/08 12:03:11;;;;;;;5.00;4.60;;;;;;;;;;5032888;28;20215;-77
2023/09/08 12:05:39;;;;;;;5.57;5.13;;;;;;;;;;5030822;28;20291;-77
2023/09/08 12:08:06;;;;;;;6.20;4.70;;;;;;;;;;5033253;28;20670;-77
2023/09/08 12:10:43;;;;;;;6.15;5.28;;;;;;;;;;5026811;28;20261;-78
2023/09/08 12:13:10;;;;;;;5.80;5.20;;;;;;;;;;5028236;28;20305;-78
2023/09/08 12:15:39;;;;;;;5.72;5.18;;;;;;;;;;5032623;28;20229;-76
2023/09/08 12:18:10;;;;;;;5.38;4.90;;;;;;;;;;5017619;28;20212;-77
2023/09/08 12:20:38;;;;;;;5.55;5.05;;;;;;;;;;5030520;28;20198;-77
2023/09/08 12:23:08;;;;;;;5.60;5.10;;;;;;;;;;5029913;28;20232;-76
2023/09/08 12:25:44;;;;;;;5.03;4.70;;;;;;;;;;5031949;28;20318;-76
2023/09/08 12:28:11;;;;;;;5.80;5.13;;;;;;;;;;5032785;28;20195;-79
2023/09/08 12:30:39;;;;;;;5.32;4.85;;;;;;;;;;5031682;28;20207;-77
2023/09/08 12:33:08;;;;;;;7.45;4.82;;;;;;;;;;5032156;28;20697;-76
2023/09/08 12:35:36;;;;;;;5.20;4.70;;;;;;;;;;5031322;28;20225;-77
2023/09/08 12:38:05;;;;;;;5.57;4.85;;;;;;;;;;5031558;28;20618;-78
2023/09/08 12:40:36;;;;;;;6.20;5.13;;;;;;;;;;5018743;28;20748;-78
2023/09/08 12:43:04;;;;;;;6.00;5.32;;;;;;;;;;5020411;28;20594;-77
2023/09/08 12:45:39;;;;;;;5.75;4.90;;;;;;;;;;5030941;28;20229;-77
2023/09/08 12:48:07;;;;;;;5.72;5.15;;;;;;;;;;5031400;28;20207;-77
2023/09/08 12:50:34;;;;;;;6.20;4.93;;;;;;;;;;5031036;28;20788;-76
2023/09/08 12:53:01;;;;;;;4.97;4.53;;;;;;;;;;5029753;28;20218;-76
2023/09/08 12:55:28;;;;;;;6.10;4.97;;;;;;;;;;5028914;28;20269;-76
2023/09/08 12:57:57;;;;;;;5.30;4.80;;;;;;;;;;5030839;28;20210;-76
2023/09/08 13:00:25;;;;;;;5.38;4.97;;;;;;;;;;5029373;28;20264;-76
2023/09/08 13:02:52;;;;;;;6.13;4.88;;;;;;;;;;5030983;28;20233;-76
2023/09/08 13:05:19;;;;;;;5.40;4.80;;;;;;;;;;5030435;28;20231;-76
2023/09/08 13:07:47;;;;;;;6.25;5.45;;;;;;;;;;5028983;28;20879;-76
2023/09/08 13:10:14;;;;;;;5.15;4.68;;;;;;;;;;5025828;28;20694;-77
2023/09/08 13:12:42;;;;;;;8.40;5.43;;;;;;;;;;5028548;28;20223;-76
2023/09/08 13:15:09;;;;;;;8.00;5.40;;;;;;;;;;5030989;28;20662;-75
2023/09/08 13:17:37;;;;;;;6.43;5.20;;;;;;;;;;5030384;28;20740;-75
2023/09/08 13:20:04;;;;;;;5.65;5.15;;;;;;;;;;5024742;28;20207;-76
2023/09/08 13:22:31;;;;;;;9.55;5.15;;;;;;;;;;5030870;28;20601;-76
2023/09/08 13:24:59;;;;;;;5.47;4.95;;;;;;;;;;5029711;28;20226;-76
2023/09/08 13:27:26;;;;;;;5.78;5.30;;;;;;;;;;5012906;28;20278;-75
2023/09/08 13:30:08;;;;;;;5.47;5.05;;;;;;;;;;5029336;28;20203;-76
2023/09/08 13:32:36;;;;;;;5.93;5.43;;;;;;;;;;5028174;28;20226;-75
2023/09/08 13:35:03;;;;;;;6.18;5.10;;;;;;;;;;5030053;28;20203;-79
2023/09/08 13:37:30;;;;;;;6.32;5.32;;;;;;;;;;5030220;28;20694;-79
2023/09/08 13:39:58;;;;;;;5.30;4.80;;;;;;;;;;5030284;28;20294;-76
2023/09/08 13:42:25;;;;;;;8.13;5.18;;;;;;;;;;5030840;28;20213;-75
2023/09/08 13:44:52;;;;;;;5.18;4.78;;;;;;;;;;5033190;28;20230;-75
2023/09/08 13:47:20;;;;;;;5.63;5.05;;;;;;;;;;5032688;28;20202;-76
2023/09/08 13:49:48;;;;;;;5.80;5.20;;;;;;;;;;5031364;28;20207;-75
2023/09/08 13:52:17;;;;;;;6.88;4.88;;;;;;;;;;5034293;28;20335;-75
2023/09/08 13:54:45;;;;;;;4.95;4.55;;;;;;;;;;5032571;28;20206;-75
2023/09/08 13:57:13;;;;;;;5.50;5.10;;;;;;;;;;5034452;28;20257;-77
2023/09/08 13:59:41;;;;;;;6.25;5.53;;;;;;;;;;5033339;28;20662;-76
2023/09/08 14:02:09;;;;;;;5.55;5.05;;;;;;;;;;5032104;28;20633;-76
2023/09/08 14:04:56;;;;;;;6.53;5.28;;;;;;;;;;5030427;28;20313;-76
2023/09/08 14:07:29;;;;;;;5.95;5.45;;;;;;;;;;5034316;28;20209;-77
2023/09/08 14:10:01;;;;;;;6.60;4.85;;;;;;;;;;5034306;28;20207;-76
2023/09/08 14:12:37;;;;;;;6.13;5.63;;;;;;;;;;5034089;28;20254;-76
2023/09/08 14:15:04;;;;;;;5.85;5.32;;;;;;;;;;5033538;28;20226;-74
2023/09/08 14:17:31;;;;;;;4.78;4.47;;;;;;;;;;5033398;28;20206;-75
2023/09/08 14:19:59;;;;;;;5.00;4.68;;;;;;;;;;5033325;28;20230;-76
2023/09/08 14:22:26;;;;;;;7.05;5.15;;;;;;;;;;5032327;28;20206;-76
2023/09/08 14:24:53;;;;;;;4.95;4.55;;;;;;;;;;5033360;28;20226;-76
2023/09/08 14:27:21;;;;;;;5.28;4.85;;;;;;;;;;5034238;28;20233;-76
2023/09/08 14:29:48;;;;;;;6.72;5.18;;;;;;;;;;5032194;28;20260;-76
2023/09/08 14:32:15;;;;;;;5.28;4.80;;;;;;;;;;5032507;28;20681;-76
2023/09/08 14:34:42;;;;;;;6.15;5.10;;;;;;;;;;5033515;28;20228;-77
2023/09/08 14:37:10;;;;;;;6.07;5.00;;;;;;;;;;5033443;28;20206;-76
2023/09/08 14:39:37;;;;;;;5.03;4.63;;;;;;;;;;5027598;28;20221;-76
2023/09/08 14:42:05;;;;;;;5.78;4.75;;;;;;;;;;5033504;28;20199;-76
2023/09/08 14:44:32;;;;;;;5.50;5.10;;;;;;;;;;5015937;28;20694;-76
2023/09/08 14:47:00;;;;;;;6.53;4.88;;;;;;;;;;5033033;28;20289;-76
2023/09/08 14:49:27;;;;;;;5.20;4.70;;;;;;;;;;5036257;28;20198;-77